sensor_id;sensor_type;location;lat;lon;timestamp;pressure;altitude;pressure_sealevel;temperature;humidity
79127;BME280;68528;48.814;8.904;2023-05-10T07:11:59;96016.25;;;12.60;84.13
79127;BME280;68528;48.814;8.904;2023-05-10T07:18:14;96014.31;;;12.65;83.89
79127;BME280;68528;48.814;8.904;2023-05-10T07:20:40;96019.44;;;12.77;83.53
79127;BME280;68528;48.814;8.904;2023-05-10T07:23:09;96023.38;;;12.83;82.98
79127;BME280;68528;48.814;8.904;2023-05-10T07:25:36;96021.03;;;12.85;81.93
79127;BME280;68528;48.814;8.904;2023-05-10T07:28:05;96027.72;;;12.87;81.01
79127;BME280;68528;48.814;8.904;2023-05-10T07:30:31;96027.38;;;12.92;81.23
79127;BME280;68528;48.814;8.904;2023-05-10T07:33:21;96037.56;;;12.99;81.16
79127;BME280;68528;48.814;8.904;2023-05-10T08:18:36;96058.94;;;13.79;75.60
79127;BME280;68528;48.814;8.904;2023-05-10T08:21:02;96060.53;;;13.73;76.37
79127;BME280;68528;48.814;8.904;2023-05-10T08:23:50;96067.59;;;13.57;73.71
79127;BME280;68528;48.814;8.904;2023-05-10T08:26:16;96058.16;;;13.47;73.44
79127;BME280;68528;48.814;8.904;2023-05-10T08:28:41;96070.34;;;13.71;73.96
79127;BME280;68528;48.814;8.904;2023-05-10T09:31:53;96107.72;;;14.25;68.10
79127;BME280;68528;48.814;8.904;2023-05-10T09:34:30;96110.09;;;14.19;70.63
79127;BME280;68528;48.814;8.904;2023-05-10T09:36:58;96105.34;;;14.09;69.10
79127;BME280;68528;48.814;8.904;2023-05-10T09:39:33;96108.53;;;14.14;70.79
79127;BME280;68528;48.814;8.904;2023-05-10T09:42:13;96114.81;;;14.22;69.01
79127;BME280;68528;48.814;8.904;2023-05-10T09:44:53;96103.03;;;14.36;68.58
79127;BME280;68528;48.814;8.904;2023-05-10T09:48:00;96103.75;;;14.68;67.82
79127;BME280;68528;48.814;8.904;2023-05-10T09:50:27;96102.91;;;14.88;66.98
79127;BME280;68528;48.814;8.904;2023-05-10T09:52:58;96106.63;;;15.47;65.65
79127;BME280;68528;48.814;8.904;2023-05-10T09:55:51;96104.19;;;15.56;64.34
79127;BME280;68528;48.814;8.904;2023-05-10T09:58:16;96108.13;;;15.62;64.76
79127;BME280;68528;48.814;8.904;2023-05-10T10:00:46;96111.38;;;15.43;65.36
79127;BME280;68528;48.814;8.904;2023-05-10T10:03:25;96120.91;;;15.21;66.22
79127;BME280;68528;48.814;8.904;2023-05-10T10:05:53;96115.44;;;15.07;67.57
79127;BME280;68528;48.814;8.904;2023-05-10T10:08:21;96118.25;;;14.93;68.08
79127;BME280;68528;48.814;8.904;2023-05-10T10:10:46;96119.88;;;14.73;66.56
79127;BME280;68528;48.814;8.904;2023-05-10T10:13:15;96121.47;;;14.60;67.93
79127;BME280;68528;48.814;8.904;2023-05-10T10:15:44;96122.25;;;14.71;68.66
79127;BME280;68528;48.814;8.904;2023-05-10T10:18:19;96119.34;;;15.13;67.13
79127;BME280;68528;48.814;8.904;2023-05-10T10:21:15;96122.88;;;15.17;65.34
79127;BME280;68528;48.814;8.904;2023-05-10T10:32:59;96128.56;;;13.76;67.10
79127;BME280;68528;48.814;8.904;2023-05-10T10:35:30;96128.94;;;13.71;66.29
79127;BME280;68528;48.814;8.904;2023-05-10T10:37:57;96121.88;;;13.84;66.23
79127;BME280;68528;48.814;8.904;2023-05-10T10:43:34;96127.03;;;14.46;66.13
79127;BME280;68528;48.814;8.904;2023-05-10T13:45:21;96145.03;;;15.90;54.07
79127;BME280;68528;48.814;8.904;2023-05-10T15:32:41;96127.84;;;15.57;53.66
79127;BME280;68528;48.814;8.904;2023-05-10T16:17:50;96135.97;;;14.92;56.47
79127;BME280;68528;48.814;8.904;2023-05-10T16:26:58;96156.13;;;14.61;57.03
79127;BME280;68528;48.814;8.904;2023-05-10T16:32:58;96153.34;;;14.71;56.84
79127;BME280;68528;48.814;8.904;2023-05-10T17:28:17;96184.81;;;13.96;61.41
79127;BME280;68528;48.814;8.904;2023-05-10T17:30:54;96175.34;;;13.76;62.06
79127;BME280;68528;48.814;8.904;2023-05-10T17:33:32;96189.47;;;13.64;62.05
79127;BME280;68528;48.814;8.904;2023-05-10T17:35:57;96182.38;;;13.60;62.38
79127;BME280;68528;48.814;8.904;2023-05-10T17:38:23;96183.09;;;13.46;62.61
79127;BME280;68528;48.814;8.904;2023-05-10T17:41:17;96187.78;;;13.35;63.81
79127;BME280;68528;48.814;8.904;2023-05-10T17:43:44;96180.28;;;13.25;63.79
79127;BME280;68528;48.814;8.904;2023-05-10T17:46:11;96184.56;;;13.22;64.20
79127;BME280;68528;48.814;8.904;2023-05-10T17:48:37;96179.81;;;13.16;64.17
79127;BME280;68528;48.814;8.904;2023-05-10T17:51:14;96186.91;;;13.17;63.48
79127;BME280;68528;48.814;8.904;2023-05-10T17:53:51;96188.88;;;13.13;64.34
79127;BME280;68528;48.814;8.904;2023-05-10T17:59:07;96202.88;;;12.97;65.61
79127;BME280;68528;48.814;8.904;2023-05-10T18:17:52;96202.28;;;12.63;66.68
79127;BME280;68528;48.814;8.904;2023-05-10T18:20:54;96207.81;;;12.67;67.45
79127;BME280;68528;48.814;8.904;2023-05-10T18:23:59;96205.81;;;12.68;66.60
79127;BME280;68528;48.814;8.904;2023-05-10T18:27:13;96202.38;;;12.78;67.03
79127;BME280;68528;48.814;8.904;2023-05-10T18:30:07;96198.78;;;12.74;67.70
79127;BME280;68528;48.814;8.904;2023-05-10T18:32:37;96196.44;;;12.69;67.76
79127;BME280;68528;48.814;8.904;2023-05-10T19:14:15;96218.81;;;11.83;71.68
79127;BME280;68528;48.814;8.904;2023-05-10T19:20:16;96239.13;;;11.78;71.10
79127;BME280;68528;48.814;8.904;2023-05-10T19:23:17;96226.81;;;11.95;71.97
79127;BME280;68528;48.814;8.904;2023-05-10T19:25:53;96233.03;;;11.92;70.96
79127;BME280;68528;48.814;8.904;2023-05-10T19:28:23;96234.94;;;11.88;71.71
79127;BME280;68528;48.814;8.904;2023-05-10T19:30:55;96242.19;;;11.70;72.51
79127;BME280;68528;48.814;8.904;2023-05-10T19:34:16;96239.44;;;11.70;72.90
79127;BME280;68528;48.814;8.904;2023-05-10T19:44:39;96247.66;;;11.70;73.13
79127;BME280;68528;48.814;8.904;2023-05-10T19:57:54;96248.28;;;11.56;73.52
79127;BME280;68528;48.814;8.904;2023-05-10T20:00:20;96246.25;;;11.50;72.51
79127;BME280;68528;48.814;8.904;2023-05-10T20:02:46;96237.19;;;11.46;72.75
79127;BME280;68528;48.814;8.904;2023-05-10T20:05:12;96245.03;;;11.47;71.66
79127;BME280;68528;48.814;8.904;2023-05-10T20:07:38;96244.66;;;11.49;71.43
79127;BME280;68528;48.814;8.904;2023-05-10T20:13:41;96241.50;;;11.47;70.07
79127;BME280;68528;48.814;8.904;2023-05-10T20:25:41;96245.19;;;11.28;71.27
79127;BME280;68528;48.814;8.904;2023-05-10T20:28:12;96238.31;;;11.12;71.98
79127;BME280;68528;48.814;8.904;2023-05-10T20:31:07;96247.28;;;11.09;72.08
79127;BME280;68528;48.814;8.904;2023-05-10T20:33:50;96240.44;;;10.95;73.01
79127;BME280;68528;48.814;8.904;2023-05-10T20:36:18;96242.66;;;10.86;73.32
79127;BME280;68528;48.814;8.904;2023-05-10T20:38:44;96236.44;;;10.89;73.37
79127;BME280;68528;48.814;8.904;2023-05-10T20:41:15;96244.97;;;10.84;73.17
79127;BME280;68528;48.814;8.904;2023-05-10T20:43:44;96229.09;;;10.71;73.78
79127;BME280;68528;48.814;8.904;2023-05-10T20:46:18;96229.06;;;10.67;74.22
79127;BME280;68528;48.814;8.904;2023-05-10T20:52:09;96232.84;;;10.59;74.31
79127;BME280;68528;48.814;8.904;2023-05-10T20:54:40;96234.34;;;10.53;74.90
79127;BME280;68528;48.814;8.904;2023-05-10T20:57:06;96219.69;;;10.42;75.23
79127;BME280;68528;48.814;8.904;2023-05-10T20:59:32;96217.66;;;10.39;75.32
79127;BME280;68528;48.814;8.904;2023-05-10T21:01:58;96223.88;;;10.36;75.10
79127;BME280;68528;48.814;8.904;2023-05-10T21:04:27;96223.47;;;10.34;75.02
79127;BME280;68528;48.814;8.904;2023-05-10T21:07:32;96230.22;;;10.40;75.09
79127;BME280;68528;48.814;8.904;2023-05-10T21:10:02;96220.69;;;10.31;74.95
79127;BME280;68528;48.814;8.904;2023-05-10T21:12:35;96233.56;;;10.30;74.48
79127;BME280;68528;48.814;8.904;2023-05-10T21:15:30;96223.84;;;10.33;74.37
79127;BME280;68528;48.814;8.904;2023-05-10T21:17:56;96225.34;;;10.30;74.28
79127;BME280;68528;48.814;8.904;2023-05-10T21:20:37;96233.56;;;10.30;74.37
79127;BME280;68528;48.814;8.904;2023-05-10T21:30:58;96221.06;;;10.10;75.94
79127;BME280;68528;48.814;8.904;2023-05-10T21:50:28;96238.38;;;9.95;77.96
79127;BME280;68528;48.814;8.904;2023-05-10T21:52:56;96218.13;;;9.77;78.27
79127;BME280;68528;48.814;8.904;2023-05-10T21:55:59;96228.69;;;9.78;78.37
79127;BME280;68528;48.814;8.904;2023-05-10T22:01:53;96230.09;;;9.69;79.06
79127;BME280;68528;48.814;8.904;2023-05-10T22:04:19;96230.47;;;9.67;79.14
79127;BME280;68528;48.814;8.904;2023-05-10T22:06:44;96227.22;;;9.62;78.94
79127;BME280;68528;48.814;8.904;2023-05-10T22:09:13;96219.41;;;9.60;78.88
79127;BME280;68528;48.814;8.904;2023-05-10T22:12:11;96225.56;;;9.57;79.13
79127;BME280;68528;48.814;8.904;2023-05-10T22:14:38;96227.03;;;9.51;79.04
79127;BME280;68528;48.814;8.904;2023-05-10T22:24:51;96218.66;;;9.44;78.66
79127;BME280;68528;48.814;8.904;2023-05-10T22:27:20;96222.19;;;9.44;79.47
79127;BME280;68528;48.814;8.904;2023-05-10T22:29:47;96216.75;;;9.44;78.62
79127;BME280;68528;48.814;8.904;2023-05-10T22:32:36;96222.16;;;9.41;78.82
79127;BME280;68528;48.814;8.904;2023-05-10T22:42:00;96221.19;;;9.33;80.30
79127;BME280;68528;48.814;8.904;2023-05-10T22:44:26;96221.13;;;9.30;80.00
79127;BME280;68528;48.814;8.904;2023-05-10T22:46:55;96220.34;;;9.29;80.47
79127;BME280;68528;48.814;8.904;2023-05-10T22:49:20;96219.47;;;9.25;80.97
79127;BME280;68528;48.814;8.904;2023-05-10T22:51:46;96215.47;;;9.19;81.16
79127;BME280;68528;48.814;8.904;2023-05-10T22:57:46;96223.22;;;9.17;80.70
79127;BME280;68528;48.814;8.904;2023-05-10T23:00:15;96211.44;;;9.13;81.40
79127;BME280;68528;48.814;8.904;2023-05-10T23:02:43;96210.28;;;9.14;81.63
79127;BME280;68528;48.814;8.904;2023-05-10T23:05:11;96218.72;;;9.25;81.10
79127;BME280;68528;48.814;8.904;2023-05-10T23:07:40;96216.75;;;9.25;80.52
79127;BME280;68528;48.814;8.904;2023-05-10T23:10:08;96217.53;;;9.26;79.80
79127;BME280;68528;48.814;8.904;2023-05-10T23:19:01;96228.09;;;9.27;80.29
79127;BME280;68528;48.814;8.904;2023-05-10T23:21:27;96225.81;;;9.29;79.81
79127;BME280;68528;48.814;8.904;2023-05-10T23:23:56;96222.38;;;9.32;79.55
79127;BME280;68528;48.814;8.904;2023-05-10T23:26:23;96217.91;;;9.43;79.32
79127;BME280;68528;48.814;8.904;2023-05-10T23:28:48;96224.50;;;9.42;80.04
